sensor_id;sensor_type;location;lat;lon;timestamp;pressure;altitude;pressure_sealevel;temperature;humidity
70182;BME280;60060;42.060;-87.932;2023-05-20T03:46:17;99610.71;;;21.49;37.95
70182;BME280;60060;42.060;-87.932;2023-05-20T03:48:41;99613.35;;;23.17;34.30
70182;BME280;60060;42.060;-87.932;2023-05-20T03:51:07;99616.07;;;24.25;31.72
70182;BME280;60060;42.060;-87.932;2023-05-20T03:53:32;99613.64;;;25.54;30.00
70182;BME280;60060;42.060;-87.932;2023-05-20T03:55:57;99612.45;;;26.09;28.65
70182;BME280;60060;42.060;-87.932;2023-05-20T03:58:22;99617.13;;;26.55;27.93
70182;BME280;60060;42.060;-87.932;2023-05-20T04:00:48;99617.96;;;27.12;27.18
70182;BME280;60060;42.060;-87.932;2023-05-20T04:03:13;99621.69;;;27.26;26.87
70182;BME280;60060;42.060;-87.932;2023-05-20T04:05:39;99623.96;;;27.33;26.53
70182;BME280;60060;42.060;-87.932;2023-05-20T04:08:05;99625.09;;;27.57;26.17
70182;BME280;60060;42.060;-87.932;2023-05-20T04:10:30;99624.86;;;27.77;25.97
70182;BME280;60060;42.060;-87.932;2023-05-20T04:12:55;99624.90;;;27.91;25.86
70182;BME280;60060;42.060;-87.932;2023-05-20T04:15:21;99626.11;;;28.10;25.73
70182;BME280;60060;42.060;-87.932;2023-05-20T04:17:46;99629.03;;;27.76;25.66
70182;BME280;60060;42.060;-87.932;2023-05-20T04:20:12;99632.21;;;28.13;25.51
70182;BME280;60060;42.060;-87.932;2023-05-20T04:22:37;99629.77;;;27.90;25.42
70182;BME280;60060;42.060;-87.932;2023-05-20T04:25:03;99626.85;;;28.11;25.47
70182;BME280;60060;42.060;-87.932;2023-05-20T04:27:28;99624.92;;;27.90;25.60
70182;BME280;60060;42.060;-87.932;2023-05-20T04:29:54;99620.10;;;28.43;25.22
70182;BME280;60060;42.060;-87.932;2023-05-20T04:32:19;99620.38;;;27.97;25.34
70182;BME280;60060;42.060;-87.932;2023-05-20T04:34:45;99619.27;;;27.95;25.13
70182;BME280;60060;42.060;-87.932;2023-05-20T04:37:10;99618.94;;;28.23;25.19
70182;BME280;60060;42.060;-87.932;2023-05-20T04:39:36;99617.40;;;28.44;25.15
70182;BME280;60060;42.060;-87.932;2023-05-20T04:42:01;99618.55;;;28.07;25.06
70182;BME280;60060;42.060;-87.932;2023-05-20T04:44:26;99618.57;;;28.12;24.99
70182;BME280;60060;42.060;-87.932;2023-05-20T04:46:52;99618.89;;;28.65;24.97
70182;BME280;60060;42.060;-87.932;2023-05-20T04:49:17;99622.83;;;28.23;24.87
70182;BME280;60060;42.060;-87.932;2023-05-20T04:51:43;99620.55;;;28.62;24.89
70182;BME280;60060;42.060;-87.932;2023-05-20T04:54:08;99625.71;;;28.52;24.89
70182;BME280;60060;42.060;-87.932;2023-05-20T04:56:34;99619.47;;;28.54;24.34
70182;BME280;60060;42.060;-87.932;2023-05-20T04:58:59;99619.90;;;28.58;24.53
70182;BME280;60060;42.060;-87.932;2023-05-20T05:01:25;99618.04;;;28.41;24.54
70182;BME280;60060;42.060;-87.932;2023-05-20T05:03:50;99618.08;;;28.52;24.61
70182;BME280;60060;42.060;-87.932;2023-05-20T05:06:16;99616.13;;;28.52;24.54
70182;BME280;60060;42.060;-87.932;2023-05-20T05:08:41;99620.39;;;28.39;24.74
70182;BME280;60060;42.060;-87.932;2023-05-20T05:11:07;99620.48;;;28.80;24.68
70182;BME280;60060;42.060;-87.932;2023-05-20T05:13:32;99620.78;;;28.52;24.59
70182;BME280;60060;42.060;-87.932;2023-05-20T05:15:58;99623.48;;;28.16;24.65
70182;BME280;60060;42.060;-87.932;2023-05-20T05:18:23;99626.23;;;28.17;24.66
70182;BME280;60060;42.060;-87.932;2023-05-20T05:20:48;99627.74;;;28.09;24.74
70182;BME280;60060;42.060;-87.932;2023-05-20T05:23:14;99626.15;;;28.27;24.75
70182;BME280;60060;42.060;-87.932;2023-05-20T05:25:39;99625.81;;;28.06;24.76
70182;BME280;60060;42.060;-87.932;2023-05-20T05:28:05;99625.43;;;28.53;24.75
70182;BME280;60060;42.060;-87.932;2023-05-20T05:30:30;99624.98;;;28.55;24.70
70182;BME280;60060;42.060;-87.932;2023-05-20T05:32:56;99622.89;;;28.32;24.70
70182;BME280;60060;42.060;-87.932;2023-05-20T05:35:21;99619.45;;;28.08;24.70
70182;BME280;60060;42.060;-87.932;2023-05-20T05:37:47;99617.51;;;28.09;24.65
70182;BME280;60060;42.060;-87.932;2023-05-20T05:40:13;99622.27;;;28.32;24.64
70182;BME280;60060;42.060;-87.932;2023-05-20T05:42:38;99618.08;;;28.19;24.75
70182;BME280;60060;42.060;-87.932;2023-05-20T05:45:04;99615.83;;;28.22;24.72
70182;BME280;60060;42.060;-87.932;2023-05-20T05:47:29;99612.85;;;27.88;24.77
70182;BME280;60060;42.060;-87.932;2023-05-20T05:49:54;99610.11;;;28.31;24.81
70182;BME280;60060;42.060;-87.932;2023-05-20T05:52:19;99607.94;;;28.25;24.83
70182;BME280;60060;42.060;-87.932;2023-05-20T05:54:45;99608.38;;;28.14;24.93
70182;BME280;60060;42.060;-87.932;2023-05-20T05:57:11;99602.64;;;27.89;24.95
70182;BME280;60060;42.060;-87.932;2023-05-20T05:59:36;99603.72;;;28.09;24.92
70182;BME280;60060;42.060;-87.932;2023-05-20T06:02:01;99604.15;;;28.03;24.97
70182;BME280;60060;42.060;-87.932;2023-05-20T06:04:27;99603.86;;;27.77;25.01
70182;BME280;60060;42.060;-87.932;2023-05-20T06:06:52;99597.17;;;28.00;24.97
70182;BME280;60060;42.060;-87.932;2023-05-20T06:09:18;99598.51;;;28.17;25.01
70182;BME280;60060;42.060;-87.932;2023-05-20T06:11:43;99600.83;;;27.95;24.99
70182;BME280;60060;42.060;-87.932;2023-05-20T06:14:09;99601.74;;;27.95;24.98
70182;BME280;60060;42.060;-87.932;2023-05-20T06:16:34;99601.13;;;27.66;25.02
70182;BME280;60060;42.060;-87.932;2023-05-20T06:19:00;99601.57;;;27.87;25.01
70182;BME280;60060;42.060;-87.932;2023-05-20T06:21:25;99603.28;;;27.98;24.91
70182;BME280;60060;42.060;-87.932;2023-05-20T06:23:50;99596.06;;;27.66;24.96
70182;BME280;60060;42.060;-87.932;2023-05-20T06:26:16;99596.71;;;27.91;24.94
70182;BME280;60060;42.060;-87.932;2023-05-20T06:28:41;99597.76;;;27.87;24.96
70182;BME280;60060;42.060;-87.932;2023-05-20T06:31:07;99602.36;;;27.91;24.92
70182;BME280;60060;42.060;-87.932;2023-05-20T06:33:33;99603.22;;;27.89;24.91
70182;BME280;60060;42.060;-87.932;2023-05-20T06:35:59;99603.50;;;27.89;24.90
70182;BME280;60060;42.060;-87.932;2023-05-20T06:38:23;99602.44;;;28.09;24.91
70182;BME280;60060;42.060;-87.932;2023-05-20T06:40:49;99597.83;;;28.01;24.99
70182;BME280;60060;42.060;-87.932;2023-05-20T06:43:15;99599.53;;;27.95;25.03
70182;BME280;60060;42.060;-87.932;2023-05-20T06:45:40;99599.40;;;27.68;25.03
70182;BME280;60060;42.060;-87.932;2023-05-20T06:48:06;99599.62;;;27.46;25.00
70182;BME280;60060;42.060;-87.932;2023-05-20T06:50:31;99599.31;;;27.98;24.93
70182;BME280;60060;42.060;-87.932;2023-05-20T06:52:56;99600.78;;;28.01;24.90
70182;BME280;60060;42.060;-87.932;2023-05-20T06:55:22;99603.23;;;27.88;25.00
70182;BME280;60060;42.060;-87.932;2023-05-20T06:57:47;99601.41;;;27.62;25.01
70182;BME280;60060;42.060;-87.932;2023-05-20T07:00:13;99605.86;;;27.64;24.99
70182;BME280;60060;42.060;-87.932;2023-05-20T07:02:38;99610.52;;;27.67;24.95
70182;BME280;60060;42.060;-87.932;2023-05-20T07:05:04;99616.29;;;27.62;24.98
70182;BME280;60060;42.060;-87.932;2023-05-20T07:07:30;99621.53;;;27.57;25.00
70182;BME280;60060;42.060;-87.932;2023-05-20T07:09:55;99623.89;;;27.77;25.03
70182;BME280;60060;42.060;-87.932;2023-05-20T07:12:20;99625.84;;;27.77;25.02
70182;BME280;60060;42.060;-87.932;2023-05-20T07:14:45;99622.60;;;27.78;25.00
70182;BME280;60060;42.060;-87.932;2023-05-20T07:17:11;99618.96;;;27.78;24.99
70182;BME280;60060;42.060;-87.932;2023-05-20T07:19:36;99621.17;;;27.84;24.92
70182;BME280;60060;42.060;-87.932;2023-05-20T07:22:02;99623.85;;;27.58;24.92
70182;BME280;60060;42.060;-87.932;2023-05-20T07:24:27;99623.94;;;27.79;24.94
70182;BME280;60060;42.060;-87.932;2023-05-20T07:26:53;99625.60;;;27.74;24.98
70182;BME280;60060;42.060;-87.932;2023-05-20T07:29:18;99625.92;;;27.39;25.06
70182;BME280;60060;42.060;-87.932;2023-05-20T07:31:44;99625.96;;;27.69;25.00
70182;BME280;60060;42.060;-87.932;2023-05-20T07:34:09;99623.44;;;27.52;24.90
70182;BME280;60060;42.060;-87.932;2023-05-20T07:36:34;99620.10;;;27.78;24.88
70182;BME280;60060;42.060;-87.932;2023-05-20T07:39:01;99620.04;;;27.79;24.86
70182;BME280;60060;42.060;-87.932;2023-05-20T07:41:26;99617.69;;;27.49;24.90
70182;BME280;60060;42.060;-87.932;2023-05-20T07:43:51;99617.06;;;27.75;24.87
70182;BME280;60060;42.060;-87.932;2023-05-20T07:46:17;99619.12;;;27.76;24.86
70182;BME280;60060;42.060;-87.932;2023-05-20T07:48:42;99619.93;;;27.96;24.88
70182;BME280;60060;42.060;-87.932;2023-05-20T07:51:07;99623.23;;;27.69;24.89
70182;BME280;60060;42.060;-87.932;2023-05-20T07:53:33;99627.50;;;27.39;24.93
70182;BME280;60060;42.060;-87.932;2023-05-20T07:55:58;99631.56;;;27.45;24.86
70182;BME280;60060;42.060;-87.932;2023-05-20T07:58:24;99632.39;;;27.67;24.86
70182;BME280;60060;42.060;-87.932;2023-05-20T08:00:49;99633.19;;;27.71;24.82
70182;BME280;60060;42.060;-87.932;2023-05-20T08:03:15;99631.92;;;27.72;24.79
70182;BME280;60060;42.060;-87.932;2023-05-20T08:05:41;99635.62;;;27.68;24.82
70182;BME280;60060;42.060;-87.932;2023-05-20T08:08:06;99637.98;;;27.73;24.75
70182;BME280;60060;42.060;-87.932;2023-05-20T08:10:31;99638.82;;;27.46;24.77
70182;BME280;60060;42.060;-87.932;2023-05-20T08:12:56;99639.20;;;27.76;24.71
70182;BME280;60060;42.060;-87.932;2023-05-20T08:15:22;99638.33;;;27.68;24.76
70182;BME280;60060;42.060;-87.932;2023-05-20T08:17:47;99640.43;;;27.74;24.71
70182;BME280;60060;42.060;-87.932;2023-05-20T08:20:13;99638.36;;;27.72;24.70
70182;BME280;60060;42.060;-87.932;2023-05-20T08:22:38;99640.23;;;27.90;24.73
70182;BME280;60060;42.060;-87.932;2023-05-20T08:25:07;99646.50;;;27.45;24.69
70182;BME280;60060;42.060;-87.932;2023-05-20T08:27:30;99643.52;;;27.61;24.76
70182;BME280;60060;42.060;-87.932;2023-05-20T08:29:55;99649.27;;;27.59;24.75
70182;BME280;60060;42.060;-87.932;2023-05-20T08:32:20;99655.07;;;27.57;24.77
70182;BME280;60060;42.060;-87.932;2023-05-20T08:34:46;99657.12;;;27.56;24.75
70182;BME280;60060;42.060;-87.932;2023-05-20T08:37:11;99658.41;;;27.48;24.82
70182;BME280;60060;42.060;-87.932;2023-05-20T08:39:37;99664.11;;;27.25;24.81
70182;BME280;60060;42.060;-87.932;2023-05-20T08:42:02;99666.16;;;27.79;24.74
70182;BME280;60060;42.060;-87.932;2023-05-20T08:44:28;99667.22;;;27.52;24.75
70182;BME280;60060;42.060;-87.932;2023-05-20T08:46:54;99672.85;;;27.52;24.74
70182;BME280;60060;42.060;-87.932;2023-05-20T08:49:19;99676.83;;;27.57;24.69
70182;BME280;60060;42.060;-87.932;2023-05-20T08:51:44;99678.39;;;27.51;24.71
70182;BME280;60060;42.060;-87.932;2023-05-20T08:54:10;99680.36;;;27.21;24.75
70182;BME280;60060;42.060;-87.932;2023-05-20T08:56:35;99678.83;;;27.47;24.74
70182;BME280;60060;42.060;-87.932;2023-05-20T08:59:00;99680.01;;;27.45;24.73
70182;BME280;60060;42.060;-87.932;2023-05-20T09:01:26;99677.28;;;27.43;24.73
70182;BME280;60060;42.060;-87.932;2023-05-20T09:03:51;99678.60;;;27.46;24.70
70182;BME280;60060;42.060;-87.932;2023-05-20T09:06:17;99680.54;;;27.48;24.67
70182;BME280;60060;42.060;-87.932;2023-05-20T09:08:42;99682.45;;;27.23;24.66
70182;BME280;60060;42.060;-87.932;2023-05-20T09:11:09;99685.38;;;27.63;24.72
70182;BME280;60060;42.060;-87.932;2023-05-20T09:13:34;99684.98;;;27.62;24.70
70182;BME280;60060;42.060;-87.932;2023-05-20T09:15:59;99683.67;;;27.34;24.73
70182;BME280;60060;42.060;-87.932;2023-05-20T09:18:24;99681.15;;;27.41;24.67
70182;BME280;60060;42.060;-87.932;2023-05-20T09:20:50;99674.41;;;27.44;24.65
70182;BME280;60060;42.060;-87.932;2023-05-20T09:23:17;99678.16;;;27.44;24.60
70182;BME280;60060;42.060;-87.932;2023-05-20T09:25:41;99678.13;;;27.38;24.64
70182;BME280;60060;42.060;-87.932;2023-05-20T09:28:07;99680.93;;;27.20;24.57
70182;BME280;60060;42.060;-87.932;2023-05-20T09:30:32;99688.92;;;27.40;24.60
70182;BME280;60060;42.060;-87.932;2023-05-20T09:32:58;99693.60;;;27.40;24.59
70182;BME280;60060;42.060;-87.932;2023-05-20T09:35:23;99700.63;;;27.32;24.65
70182;BME280;60060;42.060;-87.932;2023-05-20T09:37:48;99704.88;;;27.34;24.61
70182;BME280;60060;42.060;-87.932;2023-05-20T09:40:15;99704.81;;;27.56;24.62
70182;BME280;60060;42.060;-87.932;2023-05-20T09:42:43;99706.53;;;27.32;24.62
70182;BME280;60060;42.060;-87.932;2023-05-20T09:45:06;99707.12;;;27.27;24.67
70182;BME280;60060;42.060;-87.932;2023-05-20T09:47:30;99713.85;;;27.33;24.59
70182;BME280;60060;42.060;-87.932;2023-05-20T09:49:56;99718.69;;;27.08;24.56
70182;BME280;60060;42.060;-87.932;2023-05-20T09:52:22;99718.05;;;27.53;24.58
70182;BME280;60060;42.060;-87.932;2023-05-20T09:54:47;99722.08;;;27.30;24.55
70182;BME280;60060;42.060;-87.932;2023-05-20T09:57:12;99717.66;;;27.28;24.56
70182;BME280;60060;42.060;-87.932;2023-05-20T09:59:38;99719.43;;;27.50;24.56
70182;BME280;60060;42.060;-87.932;2023-05-20T10:02:03;99723.44;;;27.24;24.56
70182;BME280;60060;42.060;-87.932;2023-05-20T10:04:29;99723.70;;;27.38;24.42
70182;BME280;60060;42.060;-87.932;2023-05-20T10:07:10;99718.56;;;27.32;24.44
70182;BME280;60060;42.060;-87.932;2023-05-20T10:09:35;99721.96;;;27.57;24.44
70182;BME280;60060;42.060;-87.932;2023-05-20T10:11:51;99727.03;;;27.54;24.44
70182;BME280;60060;42.060;-87.932;2023-05-20T10:14:21;99724.65;;;27.47;24.48
70182;BME280;60060;42.060;-87.932;2023-05-20T10:16:43;99728.69;;;27.24;24.46
70182;BME280;60060;42.060;-87.932;2023-05-20T10:19:10;99735.08;;;27.30;24.40
70182;BME280;60060;42.060;-87.932;2023-05-20T10:21:27;99739.41;;;27.29;24.39
70182;BME280;60060;42.060;-87.932;2023-05-20T10:23:52;99741.76;;;27.27;24.41
70182;BME280;60060;42.060;-87.932;2023-05-20T10:26:18;99738.87;;;27.18;24.48
70182;BME280;60060;42.060;-87.932;2023-05-20T10:28:43;99743.03;;;27.37;24.51
70182;BME280;60060;42.060;-87.932;2023-05-20T10:31:15;99747.16;;;27.36;24.50
70182;BME280;60060;42.060;-87.932;2023-05-20T10:33:40;99749.59;;;27.18;24.44
70182;BME280;60060;42.060;-87.932;2023-05-20T10:36:00;99750.73;;;27.38;24.44
70182;BME280;60060;42.060;-87.932;2023-05-20T10:38:25;99754.88;;;27.06;24.51
70182;BME280;60060;42.060;-87.932;2023-05-20T10:40:51;99759.19;;;27.31;24.50
70182;BME280;60060;42.060;-87.932;2023-05-20T10:43:24;99766.22;;;27.36;24.45
70182;BME280;60060;42.060;-87.932;2023-05-20T10:45:49;99769.23;;;27.19;24.37
70182;BME280;60060;42.060;-87.932;2023-05-20T10:48:07;99769.66;;;26.99;24.33
70182;BME280;60060;42.060;-87.932;2023-05-20T10:50:35;99769.18;;;27.40;24.37
70182;BME280;60060;42.060;-87.932;2023-05-20T10:53:03;99767.46;;;27.33;24.41
70182;BME280;60060;42.060;-87.932;2023-05-20T10:55:23;99774.87;;;27.32;24.42
70182;BME280;60060;42.060;-87.932;2023-05-20T10:57:48;99772.00;;;27.31;24.40
70182;BME280;60060;42.060;-87.932;2023-05-20T11:00:15;99774.68;;;27.27;24.43
70182;BME280;60060;42.060;-87.932;2023-05-20T11:02:39;99780.14;;;27.30;24.44
70182;BME280;60060;42.060;-87.932;2023-05-20T11:05:05;99784.69;;;27.31;24.38
70182;BME280;60060;42.060;-87.932;2023-05-20T11:07:31;99789.38;;;27.26;24.42
70182;BME280;60060;42.060;-87.932;2023-05-20T11:09:56;99798.26;;;27.27;24.43
70182;BME280;60060;42.060;-87.932;2023-05-20T11:12:22;99800.37;;;27.23;24.42
70182;BME280;60060;42.060;-87.932;2023-05-20T11:14:48;99804.79;;;26.98;24.43
70182;BME280;60060;42.060;-87.932;2023-05-20T11:17:12;99809.84;;;27.22;24.42
70182;BME280;60060;42.060;-87.932;2023-05-20T11:19:37;99811.16;;;27.26;24.35
70182;BME280;60060;42.060;-87.932;2023-05-20T11:22:03;99812.15;;;27.29;24.34
70182;BME280;60060;42.060;-87.932;2023-05-20T11:24:28;99810.37;;;27.31;24.31
70182;BME280;60060;42.060;-87.932;2023-05-20T11:26:54;99812.83;;;27.10;24.28
70182;BME280;60060;42.060;-87.932;2023-05-20T11:29:20;99812.26;;;27.38;24.23
70182;BME280;60060;42.060;-87.932;2023-05-20T11:31:46;99810.74;;;27.06;24.28
70182;BME280;60060;42.060;-87.932;2023-05-20T11:34:10;99810.13;;;26.97;24.38
70182;BME280;60060;42.060;-87.932;2023-05-20T11:36:40;99810.67;;;27.20;24.38
70182;BME280;60060;42.060;-87.932;2023-05-20T11:39:01;99804.95;;;27.17;24.37
70182;BME280;60060;42.060;-87.932;2023-05-20T11:41:27;99811.56;;;26.83;24.46
70182;BME280;60060;42.060;-87.932;2023-05-20T11:43:59;99812.68;;;27.11;24.43
70182;BME280;60060;42.060;-87.932;2023-05-20T11:46:20;99817.07;;;27.12;24.39
70182;BME280;60060;42.060;-87.932;2023-05-20T11:48:50;99823.97;;;27.16;24.37
70182;BME280;60060;42.060;-87.932;2023-05-20T11:51:09;99830.33;;;27.19;24.32
70182;BME280;60060;42.060;-87.932;2023-05-20T11:53:34;99837.58;;;27.24;24.26
70182;BME280;60060;42.060;-87.932;2023-05-20T11:56:01;99839.45;;;27.21;24.29
70182;BME280;60060;42.060;-87.932;2023-05-20T11:58:26;99845.84;;;27.19;24.30
70182;BME280;60060;42.060;-87.932;2023-05-20T12:00:51;99844.25;;;27.12;24.36
70182;BME280;60060;42.060;-87.932;2023-05-20T12:03:16;99845.19;;;27.16;24.29
70182;BME280;60060;42.060;-87.932;2023-05-20T12:05:42;99847.20;;;27.18;24.38
70182;BME280;60060;42.060;-87.932;2023-05-20T12:08:07;99847.98;;;27.05;25.09
70182;BME280;60060;42.060;-87.932;2023-05-20T12:10:33;99852.36;;;26.87;25.47
70182;BME280;60060;42.060;-87.932;2023-05-20T12:12:58;99849.67;;;26.86;25.82
70182;BME280;60060;42.060;-87.932;2023-05-20T12:15:24;99844.32;;;26.69;25.92
70182;BME280;60060;42.060;-87.932;2023-05-20T12:17:50;99836.52;;;26.82;25.83
70182;BME280;60060;42.060;-87.932;2023-05-20T12:20:16;99834.89;;;27.25;25.77
70182;BME280;60060;42.060;-87.932;2023-05-20T12:22:40;99835.18;;;27.22;25.75
70182;BME280;60060;42.060;-87.932;2023-05-20T12:25:06;99841.42;;;27.14;25.68
70182;BME280;60060;42.060;-87.932;2023-05-20T12:27:31;99843.84;;;27.53;25.51
70182;BME280;60060;42.060;-87.932;2023-05-20T12:29:56;99846.49;;;27.59;25.43
70182;BME280;60060;42.060;-87.932;2023-05-20T12:32:22;99853.96;;;27.42;25.33
70182;BME280;60060;42.060;-87.932;2023-05-20T12:34:47;99858.88;;;27.49;25.20
70182;BME280;60060;42.060;-87.932;2023-05-20T12:37:13;99856.54;;;27.78;25.14
70182;BME280;60060;42.060;-87.932;2023-05-20T12:39:38;99854.31;;;27.63;25.01
70182;BME280;60060;42.060;-87.932;2023-05-20T12:42:04;99854.63;;;27.69;24.85
70182;BME280;60060;42.060;-87.932;2023-05-20T12:44:29;99857.27;;;27.75;24.75
70182;BME280;60060;42.060;-87.932;2023-05-20T12:46:54;99859.82;;;27.78;24.67
70182;BME280;60060;42.060;-87.932;2023-05-20T12:49:20;99862.97;;;27.83;24.60
70182;BME280;60060;42.060;-87.932;2023-05-20T12:51:46;99864.60;;;27.82;24.55
70182;BME280;60060;42.060;-87.932;2023-05-20T12:54:11;99869.52;;;27.85;24.50
70182;BME280;60060;42.060;-87.932;2023-05-20T12:56:36;99871.37;;;27.86;24.45
70182;BME280;60060;42.060;-87.932;2023-05-20T12:59:02;99871.05;;;27.78;24.50
70182;BME280;60060;42.060;-87.932;2023-05-20T13:01:27;99870.09;;;27.79;24.46
70182;BME280;60060;42.060;-87.932;2023-05-20T13:03:53;99866.03;;;27.95;24.46
70182;BME280;60060;42.060;-87.932;2023-05-20T13:06:18;99862.52;;;27.77;24.35
70182;BME280;60060;42.060;-87.932;2023-05-20T13:08:44;99862.03;;;27.95;24.35
70182;BME280;60060;42.060;-87.932;2023-05-20T13:11:09;99859.02;;;27.96;24.34
70182;BME280;60060;42.060;-87.932;2023-05-20T13:13:35;99858.05;;;27.84;24.41
70182;BME280;60060;42.060;-87.932;2023-05-20T13:16:00;99861.01;;;27.83;24.37
70182;BME280;60060;42.060;-87.932;2023-05-20T13:18:26;99856.43;;;27.64;24.31
70182;BME280;60060;42.060;-87.932;2023-05-20T13:20:51;99854.79;;;27.86;24.31
70182;BME280;60060;42.060;-87.932;2023-05-20T13:23:17;99858.00;;;27.87;24.27
70182;BME280;60060;42.060;-87.932;2023-05-20T13:25:42;99851.13;;;27.85;24.26
70182;BME280;60060;42.060;-87.932;2023-05-20T13:28:08;99852.55;;;27.77;24.31
70182;BME280;60060;42.060;-87.932;2023-05-20T13:30:33;99842.95;;;27.76;24.29
70182;BME280;60060;42.060;-87.932;2023-05-20T13:32:59;99846.63;;;27.52;24.28
70182;BME280;60060;42.060;-87.932;2023-05-20T13:35:25;99848.46;;;27.81;24.21
70182;BME280;60060;42.060;-87.932;2023-05-20T13:37:50;99848.47;;;27.79;24.20
70182;BME280;60060;42.060;-87.932;2023-05-20T13:40:15;99848.46;;;28.02;24.21
70182;BME280;60060;42.060;-87.932;2023-05-20T13:42:40;99848.17;;;27.53;24.19
70182;BME280;60060;42.060;-87.932;2023-05-20T13:45:07;99853.94;;;27.78;24.16
70182;BME280;60060;42.060;-87.932;2023-05-20T13:47:32;99853.42;;;27.77;24.16
70182;BME280;60060;42.060;-87.932;2023-05-20T13:49:57;99861.38;;;27.51;24.15
70182;BME280;60060;42.060;-87.932;2023-05-20T13:52:22;99858.11;;;27.49;24.15
70182;BME280;60060;42.060;-87.932;2023-05-20T13:54:48;99863.23;;;27.65;24.17
70182;BME280;60060;42.060;-87.932;2023-05-20T13:57:13;99859.17;;;27.58;24.24
70182;BME280;60060;42.060;-87.932;2023-05-20T13:59:39;99864.56;;;27.64;24.18
70182;BME280;60060;42.060;-87.932;2023-05-20T14:02:05;99867.30;;;27.61;24.17
70182;BME280;60060;42.060;-87.932;2023-05-20T14:04:30;99871.09;;;27.63;24.16
70182;BME280;60060;42.060;-87.932;2023-05-20T14:06:55;99870.35;;;27.64;24.13
70182;BME280;60060;42.060;-87.932;2023-05-20T14:09:21;99871.40;;;27.37;24.22
70182;BME280;60060;42.060;-87.932;2023-05-20T14:11:46;99873.23;;;27.67;24.53
70182;BME280;60060;42.060;-87.932;2023-05-20T14:14:12;99869.81;;;27.40;24.87
70182;BME280;60060;42.060;-87.932;2023-05-20T14:16:37;99869.74;;;27.24;24.93
70182;BME280;60060;42.060;-87.932;2023-05-20T14:19:03;99868.42;;;27.54;25.00
70182;BME280;60060;42.060;-87.932;2023-05-20T14:21:28;99863.34;;;27.68;24.95
70182;BME280;60060;42.060;-87.932;2023-05-20T14:23:54;99863.34;;;27.73;24.95
70182;BME280;60060;42.060;-87.932;2023-05-20T14:26:19;99858.70;;;27.69;24.75
70182;BME280;60060;42.060;-87.932;2023-05-20T14:28:44;99856.98;;;27.76;24.66
70182;BME280;60060;42.060;-87.932;2023-05-20T14:31:10;99852.51;;;27.90;24.49
70182;BME280;60060;42.060;-87.932;2023-05-20T14:33:36;99853.37;;;27.95;24.40
70182;BME280;60060;42.060;-87.932;2023-05-20T14:36:01;99864.98;;;27.70;24.36
70182;BME280;60060;42.060;-87.932;2023-05-20T14:38:28;99867.05;;;27.78;24.21
70182;BME280;60060;42.060;-87.932;2023-05-20T14:40:52;99877.66;;;27.98;24.25
70182;BME280;60060;42.060;-87.932;2023-05-20T14:43:17;99873.69;;;28.00;24.22
70182;BME280;60060;42.060;-87.932;2023-05-20T14:45:43;99873.76;;;27.97;24.22
70182;BME280;60060;42.060;-87.932;2023-05-20T14:48:08;99871.16;;;27.69;24.22
70182;BME280;60060;42.060;-87.932;2023-05-20T14:50:33;99873.67;;;28.03;24.12
70182;BME280;60060;42.060;-87.932;2023-05-20T14:52:59;99869.44;;;28.03;24.09
70182;BME280;60060;42.060;-87.932;2023-05-20T14:55:25;99871.95;;;28.27;24.06
70182;BME280;60060;42.060;-87.932;2023-05-20T14:57:50;99869.09;;;28.00;24.05
70182;BME280;60060;42.060;-87.932;2023-05-20T15:00:16;99869.68;;;28.12;24.08
70182;BME280;60060;42.060;-87.932;2023-05-20T15:02:41;99870.18;;;28.09;24.13
70182;BME280;60060;42.060;-87.932;2023-05-20T15:05:07;99867.66;;;27.93;24.05
70182;BME280;60060;42.060;-87.932;2023-05-20T15:07:32;99868.47;;;27.92;24.09
70182;BME280;60060;42.060;-87.932;2023-05-20T15:09:57;99868.20;;;27.92;24.14
70182;BME280;60060;42.060;-87.932;2023-05-20T15:12:23;99868.54;;;27.89;24.21
70182;BME280;60060;42.060;-87.932;2023-05-20T15:14:48;99869.64;;;27.94;24.24
70182;BME280;60060;42.060;-87.932;2023-05-20T15:17:14;99868.36;;;28.00;24.20
70182;BME280;60060;42.060;-87.932;2023-05-20T15:19:39;99859.26;;;28.03;24.13
70182;BME280;60060;42.060;-87.932;2023-05-20T15:22:05;99854.05;;;28.01;24.17
70182;BME280;60060;42.060;-87.932;2023-05-20T15:24:30;99849.27;;;27.97;24.21
70182;BME280;60060;42.060;-87.932;2023-05-20T15:26:56;99852.00;;;27.95;24.25
70182;BME280;60060;42.060;-87.932;2023-05-20T15:29:21;99855.25;;;28.18;24.28
70182;BME280;60060;42.060;-87.932;2023-05-20T15:31:47;99856.43;;;27.75;24.23
70182;BME280;60060;42.060;-87.932;2023-05-20T15:34:12;99857.02;;;28.01;24.22
70182;BME280;60060;42.060;-87.932;2023-05-20T15:36:38;99857.89;;;28.00;24.16
70182;BME280;60060;42.060;-87.932;2023-05-20T15:39:03;99856.51;;;27.96;24.25
70182;BME280;60060;42.060;-87.932;2023-05-20T15:41:30;99858.74;;;27.66;24.24
70182;BME280;60060;42.060;-87.932;2023-05-20T15:43:54;99858.30;;;27.93;24.24
70182;BME280;60060;42.060;-87.932;2023-05-20T15:46:19;99858.24;;;27.92;24.23
70182;BME280;60060;42.060;-87.932;2023-05-20T15:48:45;99861.21;;;28.00;24.20
70182;BME280;60060;42.060;-87.932;2023-05-20T15:51:10;99853.74;;;28.00;24.29
70182;BME280;60060;42.060;-87.932;2023-05-20T15:53:36;99856.69;;;28.00;24.21
70182;BME280;60060;42.060;-87.932;2023-05-20T15:56:01;99863.05;;;28.02;24.30
70182;BME280;60060;42.060;-87.932;2023-05-20T15:58:27;99857.02;;;28.06;24.29
70182;BME280;60060;42.060;-87.932;2023-05-20T16:00:52;99858.36;;;28.05;24.33
70182;BME280;60060;42.060;-87.932;2023-05-20T16:03:17;99854.92;;;28.01;24.39
70182;BME280;60060;42.060;-87.932;2023-05-20T16:05:43;99849.40;;;28.01;24.29
70182;BME280;60060;42.060;-87.932;2023-05-20T16:08:09;99859.79;;;28.01;24.27
70182;BME280;60060;42.060;-87.932;2023-05-20T16:10:34;99858.67;;;28.04;24.33
70182;BME280;60060;42.060;-87.932;2023-05-20T16:13:00;99851.87;;;28.04;24.41
70182;BME280;60060;42.060;-87.932;2023-05-20T16:15:25;99854.08;;;28.28;24.42